createdAt,value
2023-03-28T00:01:11.289Z,28.09
2023-03-28T00:03:40.307Z,28.01
2023-03-28T00:06:13.892Z,28.60
2023-03-28T00:08:41.856Z,28.90
2023-03-28T00:11:19.643Z,29.00
2023-03-28T00:13:57.621Z,28.79
2023-03-28T00:16:32.004Z,29.39
2023-03-28T00:19:03.690Z,29.45
2023-03-28T00:21:41.498Z,30.06
2023-03-28T00:24:14.716Z,29.92
2023-03-28T00:26:45.358Z,30.04
2023-03-28T00:29:20.774Z,30.75
2023-03-28T00:31:50.650Z,30.48
2023-03-28T00:34:18.400Z,30.27
2023-03-28T00:36:45.628Z,30.82
2023-03-28T00:39:13.519Z,31.03
2023-03-28T00:41:44.447Z,30.54
2023-03-28T00:44:56.754Z,30.17
2023-03-28T00:47:58.791Z,30.49
2023-03-28T00:50:46.774Z,30.91
2023-03-28T00:53:26.366Z,30.96
2023-03-28T00:56:06.010Z,30.26
2023-03-28T00:58:41.512Z,30.35
2023-03-28T01:01:14.078Z,30.67
2023-03-28T01:03:46.442Z,30.73
2023-03-28T01:06:16.473Z,30.50
2023-03-28T01:08:47.182Z,30.97
2023-03-28T01:11:17.314Z,30.84
2023-03-28T01:13:50.711Z,30.74
2023-03-28T01:16:22.141Z,31.50
2023-03-28T01:18:53.161Z,31.67
2023-03-28T01:21:49.679Z,31.67
2023-03-28T01:24:39.355Z,31.21
2023-03-28T01:27:45.558Z,31.76
2023-03-28T01:31:00.664Z,32.00
2023-03-28T01:34:28.395Z,32.66
2023-03-28T01:37:57.815Z,32.73
2023-03-28T01:40:55.069Z,32.91
2023-03-28T01:43:34.746Z,33.05
2023-03-28T01:46:17.116Z,33.69
2023-03-28T01:49:17.249Z,33.33
2023-03-28T01:52:15.692Z,33.88
2023-03-28T01:55:21.827Z,33.98
2023-03-28T01:58:16.449Z,33.86
2023-03-28T02:01:05.442Z,33.42
2023-03-28T02:03:41.985Z,33.17
2023-03-28T02:06:34.584Z,33.09
2023-03-28T02:09:04.699Z,33.29
2023-03-28T02:12:04.316Z,33.19
2023-03-28T02:15:05.008Z,33.83
2023-03-28T02:18:01.285Z,33.38
2023-03-28T02:21:05.845Z,33.28
2023-03-28T02:24:00.234Z,33.66
2023-03-28T02:26:47.794Z,33.82
2023-03-28T02:29:39.130Z,34.52
2023-03-28T02:32:21.823Z,33.66
2023-03-28T02:34:52.679Z,33.96
2023-03-28T02:37:55.695Z,34.58
2023-03-28T02:40:35.942Z,34.40
2023-03-28T02:43:36.886Z,36.28
2023-03-28T02:46:12.818Z,34.42
2023-03-28T02:49:04.751Z,34.65
2023-03-28T02:51:49.607Z,34.10
2023-03-28T02:54:47.389Z,35.33
2023-03-28T02:57:52.558Z,35.74
2023-03-28T03:00:20.529Z,37.80
2023-03-28T03:02:54.079Z,37.46
2023-03-28T03:05:22.298Z,40.84
2023-03-28T03:07:51.544Z,38.13
2023-03-28T03:10:19.266Z,40.10
2023-03-28T03:12:48.102Z,39.04
2023-03-28T03:15:18.451Z,44.45
2023-03-28T03:17:46.016Z,41.74
2023-03-28T03:20:14.312Z,41.74
2023-03-28T03:22:41.608Z,41.55
2023-03-28T03:25:11.928Z,42.31
2023-03-28T03:27:51.421Z,43.31
2023-03-28T03:30:20.275Z,48.44
2023-03-28T03:33:06.422Z,44.41
2023-03-28T03:35:33.774Z,45.26
2023-03-28T03:38:04.634Z,42.68
2023-03-28T03:40:31.946Z,44.08
2023-03-28T03:43:00.149Z,43.11
2023-03-28T03:45:28.305Z,41.79
2023-03-28T03:47:55.736Z,41.53
2023-03-28T03:50:23.216Z,40.37
2023-03-28T03:52:50.771Z,39.41
2023-03-28T03:55:23.764Z,38.91
2023-03-28T03:57:50.981Z,45.47
2023-03-28T04:00:19.267Z,44.64
2023-03-28T04:02:52.339Z,46.40
2023-03-28T04:05:24.280Z,44.74
2023-03-28T04:08:11.176Z,44.90
2023-03-28T04:10:42.250Z,49.44
2023-03-28T04:13:09.475Z,46.47
2023-03-28T04:15:38.298Z,43.97
2023-03-28T04:18:07.533Z,44.52
2023-03-28T04:20:43.216Z,43.57
2023-03-28T04:23:11.074Z,42.31
2023-03-28T04:25:43.306Z,42.21
2023-03-28T04:28:19.256Z,41.76
2023-03-28T04:31:04.699Z,40.71
2023-03-28T04:33:53.667Z,40.35
2023-03-28T04:36:25.630Z,40.33
2023-03-28T04:39:02.323Z,40.60
2023-03-28T04:41:55.369Z,40.48
2023-03-28T04:44:31.357Z,39.72
2023-03-28T04:47:03.384Z,40.40
2023-03-28T04:49:31.858Z,39.75
2023-03-28T04:52:00.184Z,38.70
2023-03-28T04:54:27.381Z,38.66
2023-03-28T04:57:06.209Z,40.29
2023-03-28T04:59:44.054Z,39.27
2023-03-28T05:02:17.007Z,39.22
2023-03-28T05:04:50.996Z,42.55
2023-03-28T05:07:18.249Z,43.12
2023-03-28T05:09:45.913Z,41.75
2023-03-28T05:12:13.219Z,43.15
2023-03-28T05:14:55.686Z,46.06
2023-03-28T05:17:23.162Z,45.46
2023-03-28T05:20:00.142Z,44.80
2023-03-28T05:22:33.492Z,46.53
2023-03-28T05:25:01.120Z,46.52
2023-03-28T05:27:28.430Z,45.77
2023-03-28T05:29:56.204Z,44.72
2023-03-28T05:32:23.774Z,43.16
2023-03-28T05:34:51.712Z,42.83
2023-03-28T05:37:19.528Z,42.60
2023-03-28T05:39:51.359Z,42.29
2023-03-28T05:42:19.531Z,42.87
2023-03-28T05:44:46.841Z,42.25
2023-03-28T05:47:55.548Z,42.22
2023-03-28T05:50:24.639Z,46.28
2023-03-28T05:52:56.714Z,41.87
2023-03-28T05:55:23.953Z,47.60
2023-03-28T05:57:51.837Z,42.13
2023-03-28T06:00:20.900Z,52.05
2023-03-28T06:02:52.145Z,56.27
2023-03-28T06:05:23.993Z,51.79
2023-03-28T06:07:51.920Z,57.90
2023-03-28T06:10:20.337Z,51.54
2023-03-28T06:13:01.423Z,51.35
2023-03-28T06:15:28.815Z,46.67
2023-03-28T06:17:57.872Z,48.29
2023-03-28T06:20:25.178Z,44.48
2023-03-28T06:22:55.959Z,45.18
2023-03-28T06:25:23.294Z,44.77
2023-03-28T06:27:50.758Z,43.53
2023-03-28T06:30:18.474Z,41.53
2023-03-28T06:32:51.372Z,40.64
2023-03-28T06:35:18.700Z,38.32
2023-03-28T06:37:45.938Z,37.45
2023-03-28T06:40:17.010Z,37.93
2023-03-28T06:42:44.400Z,37.64
2023-03-28T06:45:34.656Z,37.94
2023-03-28T06:48:08.934Z,37.56
2023-03-28T06:51:06.470Z,37.39
2023-03-28T06:53:36.093Z,37.35
2023-03-28T06:56:03.804Z,37.84
2023-03-28T06:58:31.546Z,38.38
2023-03-28T07:01:06.454Z,38.62
2023-03-28T07:03:53.684Z,38.10
2023-03-28T07:06:25.838Z,37.69
2023-03-28T07:08:53.568Z,38.27
2023-03-28T07:11:26.101Z,38.84
2023-03-28T07:13:54.112Z,38.84
2023-03-28T07:16:21.331Z,38.83
2023-03-28T07:18:49.569Z,38.14
2023-03-28T07:21:22.833Z,38.03
2023-03-28T07:23:50.286Z,37.82
2023-03-28T07:26:21.833Z,37.52
2023-03-28T07:28:49.336Z,38.61
2023-03-28T07:31:16.846Z,38.56
2023-03-28T07:33:44.205Z,37.91
2023-03-28T07:36:20.387Z,37.52
2023-03-28T07:38:52.044Z,37.49
2023-03-28T07:41:22.597Z,37.75
2023-03-28T07:43:50.234Z,38.24
2023-03-28T07:46:18.079Z,37.14
2023-03-28T07:48:46.472Z,36.90
2023-03-28T07:51:14.736Z,36.40
2023-03-28T07:53:42.655Z,35.93
2023-03-28T07:56:10.692Z,36.08
2023-03-28T07:58:58.395Z,35.99
2023-03-28T08:01:26.338Z,34.86
2023-03-28T08:03:59.467Z,33.27
2023-03-28T08:06:38.349Z,32.59
2023-03-28T08:09:08.633Z,32.14
2023-03-28T08:11:43.421Z,31.30
2023-03-28T08:14:15.464Z,33.07
2023-03-28T08:16:44.615Z,31.92
2023-03-28T08:19:12.635Z,32.08
2023-03-28T08:22:04.452Z,31.03
2023-03-28T08:24:37.666Z,30.56
2023-03-28T08:27:13.695Z,29.79
2023-03-28T08:29:43.458Z,30.70
2023-03-28T08:32:11.467Z,30.24
2023-03-28T08:34:40.646Z,30.72
2023-03-28T08:37:15.029Z,30.43
2023-03-28T08:39:45.671Z,30.96
2023-03-28T08:43:00.243Z,30.65
2023-03-28T08:45:52.412Z,30.79
2023-03-28T08:48:46.067Z,30.34
2023-03-28T08:51:36.214Z,30.09
2023-03-28T08:54:28.954Z,28.06
2023-03-28T08:57:01.148Z,29.40
2023-03-28T08:59:50.795Z,28.78
2023-03-28T09:02:26.939Z,29.13
2023-03-28T09:05:08.254Z,29.20
2023-03-28T09:08:09.594Z,29.85
2023-03-28T09:11:21.738Z,28.86
2023-03-28T09:14:41.410Z,29.14
2023-03-28T09:17:39.758Z,28.19
2023-03-28T09:21:04.285Z,27.67
2023-03-28T09:23:58.257Z,28.17
2023-03-28T09:27:28.356Z,29.01
2023-03-28T09:30:13.261Z,28.11
2023-03-28T09:32:42.465Z,28.22
2023-03-28T09:35:23.054Z,28.67
2023-03-28T09:37:57.556Z,26.80
2023-03-28T09:40:34.462Z,28.00
2023-03-28T09:43:44.940Z,26.27
2023-03-28T09:46:46.898Z,27.26
2023-03-28T09:49:24.238Z,27.24
2023-03-28T09:52:23.969Z,26.68
2023-03-28T09:54:51.684Z,26.21
2023-03-28T09:57:20.802Z,25.79
2023-03-28T09:59:48.447Z,26.04
2023-03-28T10:02:30.895Z,25.42
2023-03-28T10:05:02.857Z,26.04
2023-03-28T10:08:03.688Z,25.96
2023-03-28T10:10:40.519Z,25.66
2023-03-28T10:13:11.866Z,24.24
2023-03-28T10:15:47.001Z,23.88
2023-03-28T10:18:40.329Z,25.29
2023-03-28T10:21:31.434Z,25.81
2023-03-28T10:24:17.304Z,24.63
2023-03-28T10:26:52.642Z,25.37
2023-03-28T10:29:21.774Z,26.00
2023-03-28T10:31:50.179Z,25.51
2023-03-28T10:34:35.272Z,24.22
2023-03-28T10:37:30.748Z,24.01
2023-03-28T10:40:17.812Z,23.25
2023-03-28T10:43:16.275Z,24.04
2023-03-28T10:46:07.927Z,24.44
2023-03-28T10:48:56.887Z,24.08
2023-03-28T10:51:26.745Z,23.72
2023-03-28T10:54:36.546Z,22.52
2023-03-28T10:57:38.127Z,23.47
2023-03-28T11:00:43.482Z,22.39
2023-03-28T11:03:30.796Z,19.80
2023-03-28T11:06:54.672Z,17.92
2023-03-28T11:10:12.775Z,17.84
2023-03-28T11:13:40.929Z,17.38
2023-03-28T11:16:33.388Z,17.15
2023-03-28T11:20:21.607Z,16.78
2023-03-28T11:23:38.382Z,16.70
2023-03-28T11:26:49.199Z,16.98
2023-03-28T11:29:51.790Z,16.87
2023-03-28T11:32:49.894Z,16.80
2023-03-28T11:35:50.695Z,18.02
2023-03-28T11:38:33.120Z,19.03
2023-03-28T11:41:11.161Z,20.07
2023-03-28T11:44:29.036Z,20.85
2023-03-28T11:47:19.012Z,21.59
2023-03-28T11:50:22.897Z,21.69
2023-03-28T11:53:38.863Z,22.29
2023-03-28T11:56:30.736Z,21.83
2023-03-28T11:59:46.449Z,22.31
2023-03-28T12:02:52.257Z,22.49
2023-03-28T12:06:00.036Z,21.88
2023-03-28T12:09:03.836Z,22.71
2023-03-28T12:11:56.387Z,22.69
2023-03-28T12:14:54.404Z,22.95
2023-03-28T12:17:58.150Z,23.14
2023-03-28T12:21:13.791Z,22.52
2023-03-28T12:24:34.068Z,22.69
2023-03-28T12:27:38.889Z,22.66
2023-03-28T12:30:38.987Z,22.34
2023-03-28T12:33:22.731Z,22.05
2023-03-28T12:36:09.462Z,23.34
2023-03-28T12:39:01.400Z,22.42
2023-03-28T12:41:39.353Z,22.57
2023-03-28T12:44:41.978Z,22.93
2023-03-28T12:47:22.746Z,22.43
2023-03-28T12:50:08.012Z,22.40
2023-03-28T12:52:38.095Z,22.01
2023-03-28T12:55:31.420Z,22.13
2023-03-28T12:58:22.307Z,22.53
2023-03-28T13:01:07.378Z,22.83
2023-03-28T13:04:04.433Z,22.00
2023-03-28T13:07:18.497Z,21.79
2023-03-28T13:10:35.732Z,22.15
2023-03-28T13:13:49.657Z,22.25
2023-03-28T13:16:42.800Z,22.61
2023-03-28T13:19:16.450Z,21.93
2023-03-28T13:21:56.020Z,21.87
2023-03-28T13:24:26.269Z,22.01
2023-03-28T13:27:12.989Z,22.79
2023-03-28T13:29:51.127Z,23.05
2023-03-28T13:32:25.078Z,23.27
2023-03-28T13:34:59.841Z,23.23
2023-03-28T13:37:41.865Z,23.51
2023-03-28T13:40:50.833Z,22.60
2023-03-28T13:43:48.406Z,22.18
2023-03-28T13:46:36.061Z,23.56
2023-03-28T13:49:52.302Z,22.75
2023-03-28T13:52:24.344Z,22.19
2023-03-28T13:54:54.766Z,22.58
2023-03-28T13:57:27.310Z,22.79
2023-03-28T14:00:04.957Z,22.70
2023-03-28T14:02:49.493Z,23.01
2023-03-28T14:05:27.951Z,22.24
2023-03-28T14:08:21.863Z,22.32
2023-03-28T14:10:52.165Z,22.14
2023-03-28T14:13:26.157Z,21.10
2023-03-28T14:15:55.806Z,20.49
2023-03-28T14:18:38.248Z,21.68
2023-03-28T14:21:07.640Z,20.26
2023-03-28T14:23:42.975Z,17.99
2023-03-28T14:26:22.046Z,18.17
2023-03-28T14:28:52.015Z,18.23
2023-03-28T14:31:37.467Z,19.39
2023-03-28T14:34:34.795Z,20.18
2023-03-28T14:37:08.664Z,20.62
2023-03-28T14:39:38.979Z,20.95
2023-03-28T14:42:13.766Z,20.62
2023-03-28T14:44:45.523Z,19.49
2023-03-28T14:47:27.215Z,20.02
2023-03-28T14:49:55.680Z,19.94
2023-03-28T14:52:34.418Z,19.46
2023-03-28T14:55:02.516Z,19.69
2023-03-28T14:57:30.624Z,19.73
2023-03-28T14:59:58.712Z,19.39
2023-03-28T15:02:39.511Z,19.54
2023-03-28T15:05:13.533Z,19.28
2023-03-28T15:07:42.461Z,19.88
2023-03-28T15:10:19.629Z,19.68
2023-03-28T15:13:11.640Z,18.62
2023-03-28T15:15:45.267Z,19.76
2023-03-28T15:18:25.097Z,18.70
2023-03-28T15:20:58.515Z,17.34
2023-03-28T15:23:57.957Z,17.47
2023-03-28T15:26:34.931Z,16.93
2023-03-28T15:29:05.771Z,17.60
2023-03-28T15:31:33.976Z,17.43
2023-03-28T15:34:01.328Z,16.93
2023-03-28T15:36:34.623Z,17.58
2023-03-28T15:39:22.383Z,17.25
2023-03-28T15:41:59.798Z,16.75
2023-03-28T15:44:31.147Z,18.70
2023-03-28T15:47:12.952Z,17.76
2023-03-28T15:49:40.491Z,17.25
2023-03-28T15:52:25.866Z,17.47
2023-03-28T15:54:54.888Z,17.26
2023-03-28T15:57:27.390Z,16.80
2023-03-28T15:59:56.142Z,16.66
2023-03-28T16:02:23.215Z,16.95
2023-03-28T16:05:15.361Z,17.00
2023-03-28T16:07:48.256Z,16.83
2023-03-28T16:10:23.435Z,16.26
2023-03-28T16:13:14.503Z,16.43
2023-03-28T16:15:59.639Z,16.42
2023-03-28T16:18:38.990Z,16.43
2023-03-28T16:21:10.212Z,16.13
2023-03-28T16:23:37.692Z,15.77
2023-03-28T16:26:06.891Z,15.63
2023-03-28T16:28:35.437Z,15.96
2023-03-28T16:31:03.097Z,17.12
2023-03-28T16:33:30.590Z,16.28
2023-03-28T16:35:58.618Z,16.15
2023-03-28T16:38:26.303Z,18.86
2023-03-28T16:40:53.499Z,18.85
2023-03-28T16:43:21.048Z,17.34
2023-03-28T16:45:50.078Z,16.75
2023-03-28T16:48:17.624Z,17.23
2023-03-28T16:50:58.544Z,17.38
2023-03-28T16:53:26.117Z,16.03
2023-03-28T16:55:53.472Z,16.61
2023-03-28T16:58:20.748Z,15.98
2023-03-28T17:00:51.290Z,16.37
2023-03-28T17:03:18.686Z,16.34
2023-03-28T17:05:46.351Z,16.40
2023-03-28T17:08:13.633Z,19.37
2023-03-28T17:10:43.445Z,19.38
2023-03-28T17:13:10.962Z,18.81
2023-03-28T17:15:38.158Z,18.65
2023-03-28T17:18:05.771Z,19.28
2023-03-28T17:20:33.477Z,20.62
2023-03-28T17:23:00.736Z,20.80
2023-03-28T17:25:28.017Z,22.02
2023-03-28T17:27:55.586Z,21.19
2023-03-28T17:30:22.780Z,21.89
2023-03-28T17:32:51.284Z,22.16
2023-03-28T17:35:18.721Z,22.62
2023-03-28T17:37:45.888Z,22.88
2023-03-28T17:40:14.483Z,22.96
2023-03-28T17:42:41.707Z,22.92
2023-03-28T17:45:10.648Z,23.49
2023-03-28T17:47:39.425Z,23.16
2023-03-28T17:50:07.864Z,23.27
2023-03-28T17:52:35.468Z,23.70
2023-03-28T17:55:03.198Z,23.77
2023-03-28T17:57:30.453Z,24.18
2023-03-28T17:59:58.021Z,24.45
2023-03-28T18:02:25.422Z,24.36
2023-03-28T18:05:05.157Z,24.10
2023-03-28T18:07:34.848Z,24.85
2023-03-28T18:10:05.968Z,24.36
2023-03-28T18:12:33.224Z,24.41
2023-03-28T18:15:01.435Z,24.98
2023-03-28T18:17:28.737Z,25.75
2023-03-28T18:19:56.043Z,25.80
2023-03-28T18:22:23.296Z,26.10
2023-03-28T18:24:50.487Z,25.42
2023-03-28T18:27:17.635Z,25.51
2023-03-28T18:29:44.817Z,25.83
2023-03-28T18:32:12.290Z,26.00
2023-03-28T18:34:41.313Z,26.52
2023-03-28T18:37:10.144Z,26.44
2023-03-28T18:39:37.613Z,27.13
2023-03-28T18:42:06.288Z,27.53
2023-03-28T18:44:36.498Z,27.77
2023-03-28T18:47:05.475Z,27.88
2023-03-28T18:49:34.563Z,28.63
2023-03-28T18:52:04.669Z,28.75
2023-03-28T18:54:34.512Z,28.89
2023-03-28T18:57:03.141Z,29.34
2023-03-28T18:59:31.059Z,29.94
2023-03-28T19:01:59.427Z,30.92
2023-03-28T19:04:27.411Z,31.00
2023-03-28T19:06:54.681Z,31.08
2023-03-28T19:09:22.572Z,31.71
2023-03-28T19:11:53.791Z,36.23
2023-03-28T19:14:20.951Z,33.20
2023-03-28T19:16:48.280Z,31.32
2023-03-28T19:19:16.474Z,31.83
2023-03-28T19:21:43.689Z,31.50
2023-03-28T19:24:10.949Z,31.81
2023-03-28T19:26:38.657Z,32.33
2023-03-28T19:29:05.970Z,33.29
2023-03-28T19:31:33.230Z,33.48
2023-03-28T19:34:00.433Z,32.97
2023-03-28T19:36:27.643Z,34.17
2023-03-28T19:38:54.848Z,33.81
2023-03-28T19:41:24.441Z,33.98
2023-03-28T19:43:51.686Z,34.63
2023-03-28T19:46:32.406Z,33.93
2023-03-28T19:49:05.534Z,34.38
2023-03-28T19:51:33.446Z,34.22
2023-03-28T19:54:01.064Z,34.26
2023-03-28T19:56:28.418Z,34.31
2023-03-28T19:58:55.672Z,34.36
2023-03-28T20:01:23.053Z,34.46
2023-03-28T20:03:53.004Z,34.63
2023-03-28T20:06:22.738Z,34.53
2023-03-28T20:08:51.022Z,34.63
2023-03-28T20:11:18.589Z,34.72
2023-03-28T20:13:45.854Z,34.64
2023-03-28T20:16:14.164Z,34.91
2023-03-28T20:18:41.836Z,35.01
2023-03-28T20:21:14.188Z,34.68
2023-03-28T20:23:41.879Z,34.95
2023-03-28T20:26:19.864Z,34.76
2023-03-28T20:28:50.261Z,34.81
2023-03-28T20:31:19.150Z,35.00
2023-03-28T20:33:46.582Z,35.31
2023-03-28T20:36:13.856Z,35.19
2023-03-28T20:38:41.224Z,35.64
2023-03-28T20:41:18.479Z,36.23
2023-03-28T20:43:50.103Z,36.15
2023-03-28T20:46:19.599Z,35.79
2023-03-28T20:48:56.878Z,36.10
2023-03-28T20:51:26.022Z,36.20
2023-03-28T20:54:00.112Z,37.03
2023-03-28T20:56:30.163Z,36.12
2023-03-28T20:58:59.515Z,36.84
2023-03-28T21:01:29.854Z,36.42
2023-03-28T21:03:58.951Z,36.72
2023-03-28T21:06:38.029Z,36.52
2023-03-28T21:09:10.500Z,36.98
2023-03-28T21:11:40.146Z,36.94
2023-03-28T21:14:12.008Z,37.28
2023-03-28T21:16:40.394Z,37.72
2023-03-28T21:19:08.070Z,37.71
2023-03-28T21:21:35.585Z,37.70
2023-03-28T21:24:05.104Z,38.01
2023-03-28T21:26:32.449Z,38.37
2023-03-28T21:28:59.800Z,38.06
2023-03-28T21:31:29.120Z,38.02
2023-03-28T21:33:58.734Z,38.37
2023-03-28T21:36:27.200Z,38.43
2023-03-28T21:38:55.952Z,39.37
2023-03-28T21:41:23.801Z,38.61
2023-03-28T21:43:53.526Z,39.78
2023-03-28T21:46:22.550Z,39.02
2023-03-28T21:48:49.863Z,39.35
2023-03-28T21:51:17.590Z,39.61
2023-03-28T21:53:45.893Z,41.55
2023-03-28T21:56:14.889Z,41.11
2023-03-28T21:58:42.516Z,41.01
2023-03-28T22:01:14.556Z,42.27
2023-03-28T22:03:42.035Z,42.82
2023-03-28T22:06:09.954Z,42.56
2023-03-28T22:08:37.178Z,43.58
2023-03-28T22:11:14.843Z,44.48
2023-03-28T22:13:44.882Z,45.17
2023-03-28T22:16:15.430Z,45.25
2023-03-28T22:18:49.456Z,46.12
2023-03-28T22:21:17.224Z,54.62
2023-03-28T22:23:47.090Z,48.45
2023-03-28T22:26:14.660Z,48.66
2023-03-28T22:28:41.823Z,49.30
2023-03-28T22:31:09.114Z,49.03
2023-03-28T22:33:37.003Z,49.86
2023-03-28T22:36:05.118Z,51.11
2023-03-28T22:38:32.318Z,53.37
2023-03-28T22:40:59.675Z,54.62
2023-03-28T22:43:28.928Z,53.07
2023-03-28T22:45:56.620Z,53.03
2023-03-28T22:48:23.810Z,53.39
2023-03-28T22:50:50.957Z,54.53
2023-03-28T22:53:22.528Z,55.04
2023-03-28T22:55:49.796Z,56.66
2023-03-28T22:58:17.838Z,57.98
2023-03-28T23:00:46.249Z,58.52
2023-03-28T23:03:14.582Z,58.67
2023-03-28T23:05:42.546Z,58.90
2023-03-28T23:08:11.208Z,58.67
2023-03-28T23:10:38.697Z,59.78
2023-03-28T23:13:06.739Z,60.91
2023-03-28T23:15:34.060Z,61.34
2023-03-28T23:18:01.288Z,60.12
2023-03-28T23:20:29.380Z,60.78
2023-03-28T23:22:56.711Z,59.91
2023-03-28T23:25:24.187Z,60.81
2023-03-28T23:27:51.543Z,59.26
2023-03-28T23:30:18.908Z,59.81
2023-03-28T23:32:46.168Z,59.00
2023-03-28T23:35:13.414Z,58.98
2023-03-28T23:37:40.665Z,58.61
2023-03-28T23:40:14.566Z,58.95
2023-03-28T23:42:44.722Z,63.64
2023-03-28T23:45:14.826Z,61.09
2023-03-28T23:47:44.232Z,61.86
2023-03-28T23:50:12.134Z,63.08
2023-03-28T23:52:39.921Z,64.04
2023-03-28T23:55:08.524Z,63.69
2023-03-28T23:57:35.804Z,64.84
